• Join FlightAware (Why Join?)
  • Login
  • US Flag 
10:09PM EDT


 

Airport Tracker/Info


-or-


 

Live Flight TrackerFlight Track Log ✈ SWA2852 ✈ 17-Apr-2013 ✈ KPHX - KSNA

Flight Track Log - Related Links

Times and Time Zones

All times are in EDT time to prevent confusion due to time zone crossing. See the SWA2852 flight status page for this flight to view local times or setup timezone preferences in your user account.

Time Position Orientation Groundspeed Altitude Reporting Facility
EDT Latitude Longitude Course Direction KTS MPH feet Rate Location/Type
12:12AM 33.4333 -112.0333 273° West 154 177 2,600  Level Phoenix TRACON
12:13AM 33.4208 -112.0511 230° Southwest 155 178 3,200 2,100 Climbing Albuquerque Center
12:14AM 33.4003 -112.1222 251° West 230 265 5,500 3,000 Climbing Albuquerque Center
12:15AM 33.4072 -112.2094 275° West 264 304 9,300 3,240 Climbing Albuquerque Center
12:16AM 33.4150 -112.3133 275° West 327 376 12,100 3,360 Climbing Albuquerque Center
12:17AM 33.4244 -112.4333 275° West 363 418 16,200 4,080 Climbing Albuquerque Center
12:18AM 33.4430 -112.6197 273° West  Level FlightAware Approximate
12:18AM 33.4325 -112.5511 275° West 355 409 20,400  Level Albuquerque Center
12:19AM 33.4408 -112.6650 275° West 351 404 23,000 2,220 Climbing Albuquerque Center
12:20AM 33.4508 -112.7875 276° West 365 420 25,000 2,280 Climbing Albuquerque Center
12:21AM 33.4694 -112.9103 280° West 375 432 27,700 2,400 Climbing Albuquerque Center
12:22AM 33.4906 -113.0194 283° West 351 404 30,000 1,080 Climbing Albuquerque Center
12:23AM 33.5169 -113.1558 283° West 350 403 30,000  Level Albuquerque Center
12:24AM 33.5394 -113.2758 283° West 364 419 30,000  Level Albuquerque Center
12:25AM 33.5617 -113.3958 283° West 368 423 30,000  Level Albuquerque Center
12:26AM 33.5844 -113.5133 283° West 366 421 30,000  Level Albuquerque Center
12:27AM 33.6064 -113.6308 283° West 363 418 30,000  Level Albuquerque Center
12:28AM 33.6294 -113.7553 283° West 362 417 30,000  Level Albuquerque Center
12:29AM 33.6519 -113.8736 283° West 363 418 30,000  Level Albuquerque Center
12:30AM 33.6706 -113.9939 281° West 366 421 30,000  Level Albuquerque Center
12:31AM 33.6803 -114.1172 275° West 369 425 30,000  Level Albuquerque Center
12:32AM 33.6914 -114.2317 277° West 372 428 30,000 -60 Level Albuquerque Center
12:33AM 33.7031 -114.3575 276° West 377 434 29,900  Descending Albuquerque Center
12:34AM 33.7167 -114.5114 276° West 386 444 30,000  Climbing Albuquerque Center
12:35AM 33.7264 -114.6300 276° West 394 453 30,000  Level Los Angeles Center
12:36AM 33.7383 -114.7617 276° West 398 458 30,000  Level Los Angeles Center
12:37AM 33.7511 -114.9181 276° West 395 455 30,000  Level Los Angeles Center
12:38AM 33.7619 -115.0486 276° West 395 455 30,000  Level Los Angeles Center
12:39AM 33.7733 -115.1828 276° West 400 460 30,000  Level Los Angeles Center
12:40AM 33.7847 -115.3186 276° West 407 468 30,000  Level Los Angeles Center
12:41AM 33.7961 -115.4558 276° West 413 475 30,000  Level Los Angeles Center
12:42AM 33.8069 -115.5944 275° West 417 480 30,000  Level Los Angeles Center
12:43AM 33.8169 -115.7336 275° West 419 482 30,000  Level Los Angeles Center
12:44AM 33.8281 -115.8725 276° West 420 483 30,000  Level Los Angeles Center
12:45AM 33.8417 -116.0425 276° West 426 490 30,000 -180 Level Los Angeles Center
12:46AM 33.8519 -116.1833 275° West 426 490 29,700 -1,920 Descending Los Angeles Center
12:47AM 33.8619 -116.3214 275° West 420 483 26,100 -3,300 Descending Los Angeles Center
12:48AM 33.8714 -116.4581 275° West 412 474 23,000 -3,000 Descending Los Angeles Center
12:49AM 33.8769 -116.5872 273° West 392 451 20,000 -2,040 Descending Los Angeles Center
12:50AM 33.8828 -116.7100 273° West 374 430 18,900 -2,220 Descending Los Angeles Center
12:51AM 33.8886 -116.8261 273° West 354 407 15,500 -2,460 Descending Los Angeles Center
12:52AM 33.8614 -116.9411 254° West 361 415 13,900 -1,260 Descending Los Angeles Center
12:53AM 33.8447 -117.0650 261° West 332 382 13,000 -1,680 Descending Los Angeles Center
12:54AM 33.8317 -117.1764 262° West 335 386 10,500 -1,560 Descending Los Angeles Center
12:55AM 33.8181 -117.2844 261° West 329 379 9,900 -1,200 Descending Los Angeles Center
12:56AM 33.8061 -117.3847 262° West 309 356 8,100 -1,020 Descending Los Angeles Center
12:57AM 33.7947 -117.4800 262° West 294 338 7,900 -120 Descending Los Angeles Center
12:58AM 33.7825 -117.5728 261° West 284 327 7,900 -240 Level Los Angeles Center
12:59AM 33.8000 -117.6333 289° West 261 300 7,600 -780 Descending Southern California TRACON
01:00AM 33.8167 -117.7000 287° West 234 269 6,800 -1,200 Descending Southern California TRACON
01:01AM 33.8167 -117.7667 270° West 216 249 5,300 -1,320 Descending Southern California TRACON
01:02AM 33.7833 -117.8000 220° Southwest 166 191 4,200 -1,500 Descending Southern California TRACON
01:03AM 33.7500 -117.8333 220° Southwest 154 177 2,400 -1,740 Descending Southern California TRACON
01:04AM 33.7000 -117.8500 195° South 146 168 800 -900 Descending Southern California TRACON
01:06AM 33.6553 -117.8806 210° Southwest 144 166 100 -420 Descending Los Angeles Center